Almont, MI

7:38 PM EDT on August 20, 2014 (GMT -0400)
Oakland County International | Change Station
CLOSE
Current Station
Airport
Location: Pontiac,
Elevation: 981 ft
Nearby Weather Stations

Elev 981 ft 42.67 °N, 83.42 °W | Updated 45 minutes ago

Mostly Cloudy
Mostly Cloudy
79 °F
Feels Like 79 °F
N
12
Wind Variable Wind from WNW

Today
High -- | Low -- °F
--% Chance of Precip.
Yesterday
High -- | Low -- °F
Precip. -- in
6:43 AM 8:26 PM
Waning Crescent, 18% visible
Pressure 29.86 in
Visibility 10.0 miles
Clouds Few 3800 ft
Scattered Clouds 9000 ft
Mostly Cloudy 20000 ft
Dew Point 63 °F
Humidity 58%
Rainfall 0.00 in
Snow Depth Not available.
UV 1 out of 12
Pollen 8.90 out of 12
Ozone Good
PM2.5 Good
Flu Activity Not available.
METAR KPTK 202253Z 29010KT 10SM FEW038 SCT090 BKN200 26/17 A2988 RMK AO2 SLP111 T02610172

More Conditions Fewer Conditions

Pressure 29.86 in
Visibility 10.0 miles
Clouds Few 3800 ft
Scattered Clouds 9000 ft
Mostly Cloudy 20000 ft
Dew Point 63 °F
Humidity 58%
Rainfall 0.00 in
Snow Depth Not available.
UV 1 out of 12
Pollen 8.90 out of 12
Ozone Good
PM2.5 Good
Flu Activity Not available.
METAR KPTK 202253Z 29010KT 10SM FEW038 SCT090 BKN200 26/17 A2988 RMK AO2 SLP111 T02610172

More Conditions Fewer Conditions

10-Day Weather Forecast

Almanac

Astronomy

Aug. 20, 2014 Rise Set
Actual Time 6:43 AM EDT 8:26 PM EDT
Civil Twilight 6:13 AM EDT 8:56 PM EDT
Nautical Twilight 5:36 AM EDT 9:33 PM EDT
Astronomical Twilight 4:57 AM EDT 10:12 PM EDT
Moon 2:19 AM EDT 5:13 PM EDT
Length of Visible Light 14h 43m
Length of Day
13h 42m
Tomorrow will be 2m 40s shorter.
Waning Crescent, 18% of the Moon is Illuminated
Today
Waning Crescent
Aug 25
New
Sep 2
First Quarter
Sep 8
Full
Sep 15
Last Quarter

Today's Extremes

State Highs State Lows

Community

WunderPhotos

Upload Photos

1,745,799 photos uploaded!

Nearby

Air Quality

  Air Quality AQ Index Pollutant
Yesterday Good
PM2.5
Yesterday Good
OZONE
Current Good
PM2.5
Current Good
OZONE
Wednesday Moderate
PM2.5
Wednesday Good
OZONE
Thursday Moderate
PM2.5
Thursday Good
OZONE

Snow Depth

Station Depth Elevation
No new snow has been reported.

Earthquake Activity

City Distance Mag. Time & Date
No recent earthquake activity has been reported nearby.
Minimum magnitude displayed is 2.5.

Coastal Water Temperatures

Place Temperature
No Stations Reporting

Nearby Weather Stations